Loco Hills, New Mexico
Current Conditions -  °F | °C
As of 10:55 AM on Saturday 20 Dec 2014 (Local Time) from KATS Reporting Station
Clear Clear  
Wind Chill: 39°   Ceiling: Unl
Heat Index: 43°   Visibility: 10mi
Dew Point: 30°   Wind: 6mph
Humidity: 61%   Direction: 140°SE
Pressure: 30.12"   Gusts: NA
Location:  32.82°N, 103.98°W
Report Text: KATS 201755Z AUTO 14005KT 10SM CLR 06/M01 A3012 RMK AO2
Loading
Personal Weather Stations






























Interactive Weather Map New forecast layout! Learn more

10-Day Weather Forecast

Advertisements
Track Severe Weather on mobile